PWSweather.com
Personal Weather Stations
Station Observations
KMAMEDFI2
Medfield, MA 02052

Medfield, MA 02052

Lat: 42.1900822, Lon: -71.3296889

Elevation: 138

Station Type: Rainwise WS MK-III

http://www.medfieldweather.com

High Low Average
Temperature 76.2°F24.6°C 49.3°F9.6°C 61.9°F16.6°C
Dew Point 60.8°F16.0°C 48.4°F9.1°C 56.3°F13.5°C
Winds 4.6 mph 7.4 kmh Calm Calm 1.0 mph SW1.6 kmh SW
Wind Gusts 9.2 mph14.8 kmh -- 1.0 mph1.6 kmh
Humidity 98% 54% 84%
Pressure 30.37 in1028.4 mb 30.23 in1023.7 mb -
Precipitation 0.00 in0.0 mm - -
Hour Temp Dew Point Humidity Winds Wind Gusts Pressure Precip Precip Rate Daily Precip Total
12:00 AM 55.8°F13.2°C 55.0°F12.8°C 97% Calm Calm -- 30.23 in1023.7 mb - 0.00 in0.0 mm 0.00 in0.0 mm
12:10 AM 55.3°F12.9°C 54.4°F12.4°C 97% Calm Calm -- 30.23 in1023.7 mb - 0.00 in0.0 mm 0.00 in0.0 mm
12:20 AM 55.0°F12.8°C 54.2°F12.3°C 97% Calm Calm -- 30.24 in1024.0 mb - 0.00 in0.0 mm 0.00 in0.0 mm
12:30 AM 55.0°F12.8°C 54.2°F12.3°C 97% Calm Calm -- 30.24 in1024.0 mb - 0.00 in0.0 mm 0.00 in0.0 mm
12:40 AM 54.9°F12.7°C 54.0°F12.2°C 97% Calm Calm -- 30.24 in1024.0 mb - 0.00 in0.0 mm 0.00 in0.0 mm
12:50 AM 54.4°F12.4°C 53.6°F12.0°C 97% Calm Calm -- 30.23 in1023.7 mb - 0.00 in0.0 mm 0.00 in0.0 mm
01:00 AM 54.6°F12.6°C 53.8°F12.1°C 97% Calm Calm -- 30.24 in1024.0 mb - 0.00 in0.0 mm 0.00 in0.0 mm
01:10 AM 54.5°F12.5°C 53.7°F12.1°C 97% Calm Calm -- 30.24 in1024.0 mb - 0.00 in0.0 mm 0.00 in0.0 mm
01:20 AM 54.2°F12.3°C 53.4°F11.9°C 97% Calm Calm -- 30.24 in1024.0 mb - 0.00 in0.0 mm 0.00 in0.0 mm
01:30 AM 53.8°F12.1°C 53.0°F11.7°C 97% Calm Calm -- 30.25 in1024.4 mb - 0.00 in0.0 mm 0.00 in0.0 mm
01:40 AM 53.5°F11.9°C 52.7°F11.5°C 97% Calm Calm -- 30.25 in1024.4 mb - 0.00 in0.0 mm 0.00 in0.0 mm
01:50 AM 53.4°F11.9°C 52.5°F11.4°C 97% Calm Calm -- 30.25 in1024.4 mb - 0.00 in0.0 mm 0.00 in0.0 mm
02:00 AM 53.2°F11.8°C 52.4°F11.3°C 97% Calm Calm -- 30.25 in1024.4 mb - 0.00 in0.0 mm 0.00 in0.0 mm
02:10 AM 52.9°F11.6°C 52.0°F11.1°C 97% Calm Calm -- 30.25 in1024.4 mb - 0.00 in0.0 mm 0.00 in0.0 mm
02:20 AM 52.4°F11.3°C 51.5°F10.8°C 97% Calm Calm -- 30.25 in1024.4 mb - 0.00 in0.0 mm 0.00 in0.0 mm
02:30 AM 52.2°F11.2°C 51.4°F10.8°C 97% Calm Calm -- 30.25 in1024.4 mb - 0.00 in0.0 mm 0.00 in0.0 mm
02:40 AM 52.8°F11.6°C 52.0°F11.1°C 97% Calm Calm -- 30.25 in1024.4 mb - 0.00 in0.0 mm 0.00 in0.0 mm
02:50 AM 52.7°F11.5°C 51.9°F11.1°C 97% Calm Calm -- 30.25 in1024.4 mb - 0.00 in0.0 mm 0.00 in0.0 mm
03:00 AM 52.6°F11.4°C 51.8°F11.0°C 97% Calm Calm -- 30.25 in1024.4 mb - 0.00 in0.0 mm 0.00 in0.0 mm
03:10 AM 52.6°F11.4°C 51.8°F11.0°C 97% Calm Calm -- 30.25 in1024.4 mb - 0.00 in0.0 mm 0.00 in0.0 mm
03:20 AM 52.4°F11.3°C 51.6°F10.9°C 97% Calm Calm -- 30.26 in1024.7 mb - 0.00 in0.0 mm 0.00 in0.0 mm
03:30 AM 51.6°F10.9°C 50.8°F10.4°C 97% Calm Calm -- 30.26 in1024.7 mb - 0.00 in0.0 mm 0.00 in0.0 mm
03:40 AM 51.5°F10.8°C 50.7°F10.4°C 97% Calm Calm -- 30.26 in1024.7 mb - 0.00 in0.0 mm 0.00 in0.0 mm
03:50 AM 51.6°F10.9°C 50.8°F10.4°C 97% Calm Calm -- 30.26 in1024.7 mb - 0.00 in0.0 mm 0.00 in0.0 mm
04:00 AM 51.8°F11.0°C 51.0°F10.6°C 97% Calm Calm -- 30.26 in1024.7 mb - 0.00 in0.0 mm 0.00 in0.0 mm
04:10 AM 51.8°F11.0°C 51.0°F10.6°C 97% Calm Calm -- 30.26 in1024.7 mb - 0.00 in0.0 mm 0.00 in0.0 mm
04:20 AM 51.8°F11.0°C 51.0°F10.6°C 97% Calm Calm -- 30.27 in1025.1 mb - 0.00 in0.0 mm 0.00 in0.0 mm
04:30 AM 51.6°F10.9°C 50.8°F10.4°C 97% Calm Calm -- 30.27 in1025.1 mb - 0.00 in0.0 mm 0.00 in0.0 mm
04:40 AM 51.1°F10.6°C 50.3°F10.2°C 97% Calm Calm -- 30.27 in1025.1 mb - 0.00 in0.0 mm 0.00 in0.0 mm
04:50 AM 50.8°F10.4°C 50.0°F10.0°C 97% Calm Calm -- 30.27 in1025.1 mb - 0.00 in0.0 mm 0.00 in0.0 mm
05:00 AM 50.7°F10.4°C 49.9°F9.9°C 97% Calm Calm -- 30.27 in1025.1 mb - 0.00 in0.0 mm 0.00 in0.0 mm
05:10 AM 50.4°F10.2°C 49.6°F9.8°C 97% Calm Calm -- 30.27 in1025.1 mb - 0.00 in0.0 mm 0.00 in0.0 mm
05:20 AM 50.4°F10.2°C 49.6°F9.8°C 97% Calm Calm -- 30.27 in1025.1 mb - 0.00 in0.0 mm 0.00 in0.0 mm
05:30 AM 50.2°F10.1°C 49.4°F9.7°C 97% Calm Calm -- 30.27 in1025.1 mb - 0.00 in0.0 mm 0.00 in0.0 mm
05:40 AM 50.0°F10.0°C 49.1°F9.5°C 97% Calm Calm -- 30.27 in1025.1 mb - 0.00 in0.0 mm 0.00 in0.0 mm
05:50 AM 49.6°F9.8°C 48.8°F9.3°C 97% Calm Calm -- 30.28 in1025.4 mb - 0.00 in0.0 mm 0.00 in0.0 mm
06:00 AM 49.8°F9.9°C 48.9°F9.4°C 97% Calm Calm -- 30.27 in1025.1 mb - 0.00 in0.0 mm 0.00 in0.0 mm
06:10 AM 49.8°F9.9°C 49.0°F9.4°C 97% Calm Calm -- 30.27 in1025.1 mb - 0.00 in0.0 mm 0.00 in0.0 mm
06:20 AM 49.4°F9.7°C 48.5°F9.2°C 97% Calm Calm -- 30.28 in1025.4 mb - 0.00 in0.0 mm 0.00 in0.0 mm
06:30 AM 49.6°F9.8°C 48.8°F9.3°C 97% Calm Calm -- 30.28 in1025.4 mb - 0.00 in0.0 mm 0.00 in0.0 mm
06:40 AM 49.3°F9.6°C 48.4°F9.1°C 97% Calm Calm -- 30.28 in1025.4 mb - 0.00 in0.0 mm 0.00 in0.0 mm
06:50 AM 49.5°F9.7°C 48.7°F9.3°C 97% Calm Calm -- 30.28 in1025.4 mb - 0.00 in0.0 mm 0.00 in0.0 mm
07:00 AM 49.7°F9.8°C 48.9°F9.4°C 97% Calm Calm -- 30.29 in1025.7 mb - 0.00 in0.0 mm 0.00 in0.0 mm
07:10 AM 50.1°F10.1°C 49.3°F9.6°C 97% Calm Calm -- 30.29 in1025.7 mb - 0.00 in0.0 mm 0.00 in0.0 mm
07:20 AM 50.9°F10.5°C 50.1°F10.1°C 97% Calm Calm -- 30.29 in1025.7 mb - 0.00 in0.0 mm 0.00 in0.0 mm
07:30 AM 52.2°F11.2°C 51.3°F10.7°C 97% Calm Calm -- 30.29 in1025.7 mb - 0.00 in0.0 mm 0.00 in0.0 mm
07:40 AM 52.9°F11.6°C 52.0°F11.1°C 97% Calm Calm -- 30.30 in1026.1 mb - 0.00 in0.0 mm 0.00 in0.0 mm
07:50 AM 54.0°F12.2°C 53.1°F11.7°C 97% Calm Calm 1.2 mph1.9 kmh 30.30 in1026.1 mb - 0.00 in0.0 mm 0.00 in0.0 mm
08:00 AM 55.0°F12.8°C 54.1°F12.3°C 97% Calm Calm -- 30.31 in1026.4 mb - 0.00 in0.0 mm 0.00 in0.0 mm
08:10 AM 55.5°F13.1°C 54.7°F12.6°C 97% Calm Calm 1.2 mph1.9 kmh 30.31 in1026.4 mb - 0.00 in0.0 mm 0.00 in0.0 mm
08:20 AM 56.2°F13.4°C 55.4°F13.0°C 97% 2.3 mph NW3.7 kmh NW 2.3 mph3.7 kmh 30.31 in1026.4 mb - 0.00 in0.0 mm 0.00 in0.0 mm
08:30 AM 57.0°F13.9°C 56.1°F13.4°C 97% 1.2 mph WNW1.9 kmh WNW 1.2 mph1.9 kmh 30.31 in1026.4 mb - 0.00 in0.0 mm 0.00 in0.0 mm
08:40 AM 57.9°F14.4°C 57.1°F13.9°C 97% 2.3 mph WNW3.7 kmh WNW 5.8 mph9.3 kmh 30.31 in1026.4 mb - 0.00 in0.0 mm 0.00 in0.0 mm
08:50 AM 58.8°F14.9°C 58.3°F14.6°C 98% 1.2 mph NW1.9 kmh NW 2.3 mph3.7 kmh 30.31 in1026.4 mb - 0.00 in0.0 mm 0.00 in0.0 mm
09:00 AM 59.9°F15.5°C 59.3°F15.2°C 98% Calm Calm 1.2 mph1.9 kmh 30.32 in1026.8 mb - 0.00 in0.0 mm 0.00 in0.0 mm
09:10 AM 61.0°F16.1°C 60.5°F15.8°C 98% Calm Calm -- 30.32 in1026.8 mb - 0.00 in0.0 mm 0.00 in0.0 mm
09:20 AM 62.1°F16.7°C 60.1°F15.6°C 93% 1.2 mph N1.9 kmh N 2.3 mph3.7 kmh 30.32 in1026.8 mb - 0.00 in0.0 mm 0.00 in0.0 mm
09:30 AM 63.2°F17.3°C 59.9°F15.5°C 89% 2.3 mph E3.7 kmh E 2.3 mph3.7 kmh 30.33 in1027.1 mb - 0.00 in0.0 mm 0.00 in0.0 mm
09:40 AM 64.0°F17.8°C 60.0°F15.6°C 87% 2.3 mph SE3.7 kmh SE 2.3 mph3.7 kmh 30.33 in1027.1 mb - 0.00 in0.0 mm 0.00 in0.0 mm
09:50 AM 64.9°F18.3°C 60.6°F15.9°C 86% Calm Calm -- 30.33 in1027.1 mb - 0.00 in0.0 mm 0.00 in0.0 mm
10:00 AM 65.7°F18.7°C 59.0°F15.0°C 79% 3.5 mph NE5.6 kmh NE 5.8 mph9.3 kmh 30.34 in1027.4 mb - 0.00 in0.0 mm 0.00 in0.0 mm
10:10 AM 66.1°F18.9°C 60.1°F15.6°C 81% 2.3 mph E3.7 kmh E 2.3 mph3.7 kmh 30.34 in1027.4 mb - 0.00 in0.0 mm 0.00 in0.0 mm
10:20 AM 67.0°F19.4°C 57.7°F14.3°C 72% 3.5 mph E5.6 kmh E 2.3 mph3.7 kmh 30.35 in1027.8 mb - 0.00 in0.0 mm 0.00 in0.0 mm
10:30 AM 67.4°F19.7°C 60.0°F15.6°C 77% 2.3 mph N3.7 kmh N 2.3 mph3.7 kmh 30.35 in1027.8 mb - 0.00 in0.0 mm 0.00 in0.0 mm
10:40 AM 68.3°F20.2°C 60.1°F15.6°C 75% 2.3 mph NE3.7 kmh NE 5.8 mph9.3 kmh 30.35 in1027.8 mb - 0.00 in0.0 mm 0.00 in0.0 mm
10:50 AM 67.8°F19.9°C 58.1°F14.5°C 71% 2.3 mph E3.7 kmh E 2.3 mph3.7 kmh 30.35 in1027.8 mb - 0.00 in0.0 mm 0.00 in0.0 mm
11:00 AM 68.9°F20.5°C 59.1°F15.1°C 71% 2.3 mph NNE3.7 kmh NNE 5.8 mph9.3 kmh 30.35 in1027.8 mb - 0.00 in0.0 mm 0.00 in0.0 mm
11:10 AM 70.1°F21.2°C 58.7°F14.8°C 67% 2.3 mph E3.7 kmh E 3.5 mph5.6 kmh 30.36 in1028.1 mb - 0.00 in0.0 mm 0.00 in0.0 mm
11:20 AM 71.6°F22.0°C 59.7°F15.4°C 66% Calm Calm 2.3 mph3.7 kmh 30.37 in1028.4 mb - 0.00 in0.0 mm 0.00 in0.0 mm
11:30 AM 72.2°F22.3°C 59.8°F15.4°C 65% 2.3 mph NW3.7 kmh NW 3.5 mph5.6 kmh 30.37 in1028.4 mb - 0.00 in0.0 mm 0.00 in0.0 mm
11:40 AM 71.1°F21.7°C 58.3°F14.6°C 64% 1.2 mph SW1.9 kmh SW 2.3 mph3.7 kmh 30.36 in1028.1 mb - 0.00 in0.0 mm 0.00 in0.0 mm
11:50 AM 72.2°F22.3°C 57.6°F14.2°C 60% 3.5 mph N5.6 kmh N 2.3 mph3.7 kmh 30.36 in1028.1 mb - 0.00 in0.0 mm 0.00 in0.0 mm
12:00 PM 73.9°F23.3°C 58.7°F14.8°C 59% 1.2 mph E1.9 kmh E 2.3 mph3.7 kmh 30.36 in1028.1 mb - 0.00 in0.0 mm 0.00 in0.0 mm
12:10 PM 73.9°F23.3°C 58.7°F14.8°C 59% 2.3 mph E3.7 kmh E 2.3 mph3.7 kmh 30.36 in1028.1 mb - 0.00 in0.0 mm 0.00 in0.0 mm
12:20 PM 73.9°F23.3°C 57.2°F14.0°C 56% 1.2 mph SW1.9 kmh SW 1.2 mph1.9 kmh 30.36 in1028.1 mb - 0.00 in0.0 mm 0.00 in0.0 mm
12:30 PM 73.1°F22.8°C 58.4°F14.7°C 60% 1.2 mph NW1.9 kmh NW 2.3 mph3.7 kmh 30.36 in1028.1 mb - 0.00 in0.0 mm 0.00 in0.0 mm
12:40 PM 72.3°F22.4°C 58.6°F14.8°C 62% Calm Calm 2.3 mph3.7 kmh 30.35 in1027.8 mb - 0.00 in0.0 mm 0.00 in0.0 mm
12:50 PM 71.9°F22.2°C 58.2°F14.6°C 62% 2.3 mph NW3.7 kmh NW 2.3 mph3.7 kmh 30.36 in1028.1 mb - 0.00 in0.0 mm 0.00 in0.0 mm
01:00 PM 71.0°F21.7°C 58.2°F14.6°C 64% 2.3 mph SE3.7 kmh SE 2.3 mph3.7 kmh 30.36 in1028.1 mb - 0.00 in0.0 mm 0.00 in0.0 mm
01:10 PM 71.3°F21.8°C 59.3°F15.2°C 66% 1.2 mph ESE1.9 kmh ESE 2.3 mph3.7 kmh 30.35 in1027.8 mb - 0.00 in0.0 mm 0.00 in0.0 mm
01:20 PM 73.4°F23.0°C 59.6°F15.3°C 62% 1.2 mph N1.9 kmh N 2.3 mph3.7 kmh 30.35 in1027.8 mb - 0.00 in0.0 mm 0.00 in0.0 mm
01:30 PM 73.6°F23.1°C 58.9°F14.9°C 60% 4.6 mph NW7.4 kmh NW 9.2 mph14.8 kmh 30.35 in1027.8 mb - 0.00 in0.0 mm 0.00 in0.0 mm
01:40 PM 72.7°F22.6°C 58.9°F14.9°C 62% 2.3 mph E3.7 kmh E 2.3 mph3.7 kmh 30.33 in1027.1 mb - 0.00 in0.0 mm 0.00 in0.0 mm
01:50 PM 73.9°F23.3°C 59.2°F15.1°C 60% 3.5 mph E5.6 kmh E 2.3 mph3.7 kmh 30.33 in1027.1 mb - 0.00 in0.0 mm 0.00 in0.0 mm
02:00 PM 72.5°F22.5°C 58.3°F14.6°C 61% 2.3 mph E3.7 kmh E 2.3 mph3.7 kmh 30.33 in1027.1 mb - 0.00 in0.0 mm 0.00 in0.0 mm
02:10 PM 73.0°F22.8°C 59.7°F15.4°C 63% 1.2 mph SSE1.9 kmh SSE 2.3 mph3.7 kmh 30.33 in1027.1 mb - 0.00 in0.0 mm 0.00 in0.0 mm
02:20 PM 75.1°F23.9°C 59.8°F15.4°C 59% 2.3 mph SW3.7 kmh SW 2.3 mph3.7 kmh 30.33 in1027.1 mb - 0.00 in0.0 mm 0.00 in0.0 mm
02:30 PM 76.1°F24.5°C 60.2°F15.7°C 58% 1.2 mph N1.9 kmh N 3.5 mph5.6 kmh 30.33 in1027.1 mb - 0.00 in0.0 mm 0.00 in0.0 mm
02:40 PM 75.9°F24.4°C 58.6°F14.8°C 55% 3.5 mph NNE5.6 kmh NNE 5.8 mph9.3 kmh 30.33 in1027.1 mb - 0.00 in0.0 mm 0.00 in0.0 mm
02:50 PM 75.6°F24.2°C 58.8°F14.9°C 56% 2.3 mph SW3.7 kmh SW 2.3 mph3.7 kmh 30.33 in1027.1 mb - 0.00 in0.0 mm 0.00 in0.0 mm
03:00 PM 76.2°F24.6°C 58.4°F14.7°C 54% 3.5 mph ESE5.6 kmh ESE 2.3 mph3.7 kmh 30.33 in1027.1 mb - 0.00 in0.0 mm 0.00 in0.0 mm
03:10 PM 75.1°F23.9°C 58.4°F14.7°C 56% 2.3 mph NNE3.7 kmh NNE 3.5 mph5.6 kmh 30.33 in1027.1 mb - 0.00 in0.0 mm 0.00 in0.0 mm
03:20 PM 73.4°F23.0°C 58.2°F14.6°C 59% 2.3 mph SSW3.7 kmh SSW 2.3 mph3.7 kmh 30.33 in1027.1 mb - 0.00 in0.0 mm 0.00 in0.0 mm
03:30 PM 72.7°F22.6°C 59.4°F15.2°C 63% Calm Calm -- 30.33 in1027.1 mb - 0.00 in0.0 mm 0.00 in0.0 mm
03:40 PM 72.9°F22.7°C 58.2°F14.6°C 60% 2.3 mph E3.7 kmh E 2.3 mph3.7 kmh 30.32 in1026.8 mb - 0.00 in0.0 mm 0.00 in0.0 mm
03:50 PM 72.7°F22.6°C 58.0°F14.4°C 60% 2.3 mph E3.7 kmh E 2.3 mph3.7 kmh 30.32 in1026.8 mb - 0.00 in0.0 mm 0.00 in0.0 mm
04:00 PM 71.7°F22.1°C 58.9°F14.9°C 64% 1.2 mph NE1.9 kmh NE 2.3 mph3.7 kmh 30.31 in1026.4 mb - 0.00 in0.0 mm 0.00 in0.0 mm
04:10 PM 71.4°F21.9°C 59.4°F15.2°C 66% 1.2 mph NE1.9 kmh NE 1.2 mph1.9 kmh 30.31 in1026.4 mb - 0.00 in0.0 mm 0.00 in0.0 mm
04:20 PM 71.2°F21.8°C 58.9°F14.9°C 65% 2.3 mph NW3.7 kmh NW 3.5 mph5.6 kmh 30.31 in1026.4 mb - 0.00 in0.0 mm 0.00 in0.0 mm
04:30 PM 70.9°F21.6°C 60.2°F15.7°C 69% 1.2 mph ESE1.9 kmh ESE 2.3 mph3.7 kmh 30.31 in1026.4 mb - 0.00 in0.0 mm 0.00 in0.0 mm
04:40 PM 71.2°F21.8°C 59.7°F15.4°C 67% 2.3 mph ESE3.7 kmh ESE 2.3 mph3.7 kmh 30.30 in1026.1 mb - 0.00 in0.0 mm 0.00 in0.0 mm
04:50 PM 71.9°F22.2°C 60.8°F16.0°C 68% 2.3 mph E3.7 kmh E 2.3 mph3.7 kmh 30.30 in1026.1 mb - 0.00 in0.0 mm 0.00 in0.0 mm
05:00 PM 71.9°F22.2°C 59.9°F15.5°C 66% 1.2 mph ESE1.9 kmh ESE 2.3 mph3.7 kmh 30.30 in1026.1 mb - 0.00 in0.0 mm 0.00 in0.0 mm
05:10 PM 70.9°F21.6°C 59.4°F15.2°C 67% 1.2 mph ESE1.9 kmh ESE 2.3 mph3.7 kmh 30.31 in1026.4 mb - 0.00 in0.0 mm 0.00 in0.0 mm
05:20 PM 70.1°F21.2°C 59.0°F15.0°C 68% 1.2 mph SSE1.9 kmh SSE 2.3 mph3.7 kmh 30.30 in1026.1 mb - 0.00 in0.0 mm 0.00 in0.0 mm
05:30 PM 69.5°F20.8°C 59.3°F15.2°C 70% Calm Calm -- 30.30 in1026.1 mb - 0.00 in0.0 mm 0.00 in0.0 mm
05:40 PM 68.9°F20.5°C 59.9°F15.5°C 73% 1.2 mph N1.9 kmh N 2.3 mph3.7 kmh 30.30 in1026.1 mb - 0.00 in0.0 mm 0.00 in0.0 mm
05:50 PM 68.9°F20.5°C 59.9°F15.5°C 73% 2.3 mph E3.7 kmh E 2.3 mph3.7 kmh 30.29 in1025.7 mb - 0.00 in0.0 mm 0.00 in0.0 mm
06:00 PM 68.3°F20.2°C 60.1°F15.6°C 75% 2.3 mph ESE3.7 kmh ESE 2.3 mph3.7 kmh 30.29 in1025.7 mb - 0.00 in0.0 mm 0.00 in0.0 mm
06:10 PM 67.8°F19.9°C 59.6°F15.3°C 75% 2.3 mph E3.7 kmh E 2.3 mph3.7 kmh 30.29 in1025.7 mb - 0.00 in0.0 mm 0.00 in0.0 mm
06:20 PM 67.8°F19.9°C 60.0°F15.6°C 76% Calm Calm -- 30.29 in1025.7 mb - 0.00 in0.0 mm 0.00 in0.0 mm
06:30 PM 67.3°F19.6°C 59.5°F15.3°C 76% Calm Calm -- 30.28 in1025.4 mb - 0.00 in0.0 mm 0.00 in0.0 mm
06:40 PM 66.7°F19.3°C 60.4°F15.8°C 80% Calm Calm -- 30.28 in1025.4 mb - 0.00 in0.0 mm 0.00 in0.0 mm
06:50 PM 66.0°F18.9°C 60.0°F15.6°C 81% Calm Calm -- 30.28 in1025.4 mb - 0.00 in0.0 mm 0.00 in0.0 mm
07:00 PM 65.1°F18.4°C 59.2°F15.1°C 81% Calm Calm -- 30.28 in1025.4 mb - 0.00 in0.0 mm 0.00 in0.0 mm
07:10 PM 64.2°F17.9°C 59.6°F15.3°C 85% Calm Calm -- 30.27 in1025.1 mb - 0.00 in0.0 mm 0.00 in0.0 mm
07:20 PM 63.2°F17.3°C 59.6°F15.3°C 88% Calm Calm -- 30.27 in1025.1 mb - 0.00 in0.0 mm 0.00 in0.0 mm
07:30 PM 62.4°F16.9°C 59.2°F15.1°C 89% Calm Calm -- 30.27 in1025.1 mb - 0.00 in0.0 mm 0.00 in0.0 mm
07:40 PM 61.7°F16.5°C 59.7°F15.4°C 93% Calm Calm -- 30.27 in1025.1 mb - 0.00 in0.0 mm 0.00 in0.0 mm
07:50 PM 61.2°F16.2°C 59.2°F15.1°C 93% Calm Calm -- 30.27 in1025.1 mb - 0.00 in0.0 mm 0.00 in0.0 mm
08:00 PM 61.3°F16.3°C 59.2°F15.1°C 93% Calm Calm -- 30.26 in1024.7 mb - 0.00 in0.0 mm 0.00 in0.0 mm
08:10 PM 61.4°F16.3°C 59.4°F15.2°C 93% Calm Calm -- 30.26 in1024.7 mb - 0.00 in0.0 mm 0.00 in0.0 mm
08:20 PM 61.1°F16.2°C 58.8°F14.9°C 92% Calm Calm -- 30.27 in1025.1 mb - 0.00 in0.0 mm 0.00 in0.0 mm
08:30 PM 60.9°F16.1°C 59.2°F15.1°C 94% Calm Calm -- 30.26 in1024.7 mb - 0.00 in0.0 mm 0.00 in0.0 mm
08:40 PM 60.9°F16.1°C 58.9°F14.9°C 93% Calm Calm -- 30.26 in1024.7 mb - 0.00 in0.0 mm 0.00 in0.0 mm
08:50 PM 60.5°F15.8°C 58.5°F14.7°C 93% Calm Calm -- 30.27 in1025.1 mb - 0.00 in0.0 mm 0.00 in0.0 mm
09:00 PM 60.3°F15.7°C 58.6°F14.8°C 94% Calm Calm -- 30.26 in1024.7 mb - 0.00 in0.0 mm 0.00 in0.0 mm
09:10 PM 59.7°F15.4°C 58.3°F14.6°C 95% Calm Calm -- 30.26 in1024.7 mb - 0.00 in0.0 mm 0.00 in0.0 mm
09:20 PM 58.9°F14.9°C 57.2°F14.0°C 94% Calm Calm -- 30.25 in1024.4 mb - 0.00 in0.0 mm 0.00 in0.0 mm
09:30 PM 58.6°F14.8°C 57.8°F14.3°C 97% Calm Calm -- 30.25 in1024.4 mb - 0.00 in0.0 mm 0.00 in0.0 mm
09:40 PM 58.4°F14.7°C 57.8°F14.3°C 98% Calm Calm -- 30.25 in1024.4 mb - 0.00 in0.0 mm 0.00 in0.0 mm
09:50 PM 58.3°F14.6°C 57.7°F14.3°C 98% Calm Calm -- 30.25 in1024.4 mb - 0.00 in0.0 mm 0.00 in0.0 mm
10:00 PM 58.3°F14.6°C 57.8°F14.3°C 98% Calm Calm -- 30.25 in1024.4 mb - 0.00 in0.0 mm 0.00 in0.0 mm
10:10 PM 58.1°F14.5°C 57.5°F14.2°C 98% Calm Calm -- 30.25 in1024.4 mb - 0.00 in0.0 mm 0.00 in0.0 mm
10:20 PM 58.1°F14.5°C 57.5°F14.2°C 98% Calm Calm -- 30.24 in1024.0 mb - 0.00 in0.0 mm 0.00 in0.0 mm
10:30 PM 58.0°F14.4°C 57.4°F14.1°C 98% Calm Calm -- 30.23 in1023.7 mb - 0.00 in0.0 mm 0.00 in0.0 mm
10:40 PM 57.9°F14.4°C 57.1°F13.9°C 97% Calm Calm -- 30.23 in1023.7 mb - 0.00 in0.0 mm 0.00 in0.0 mm
10:50 PM 58.0°F14.4°C 57.4°F14.1°C 98% Calm Calm -- 30.23 in1023.7 mb - 0.00 in0.0 mm 0.00 in0.0 mm
11:00 PM 57.8°F14.3°C 56.9°F13.8°C 97% Calm Calm -- 30.23 in1023.7 mb - 0.00 in0.0 mm 0.00 in0.0 mm